sensor_id;sensor_type;location;lat;lon;timestamp;temperature;humidity
728;DHT22;347;48.780;9.158;2022-12-18T00:03:54;-0.40;27.10
728;DHT22;347;48.780;9.158;2022-12-18T00:06:20;0.00;25.70
728;DHT22;347;48.780;9.158;2022-12-18T00:08:46;-0.10;24.30
728;DHT22;347;48.780;9.158;2022-12-18T00:11:14;-0.50;24.80
728;DHT22;347;48.780;9.158;2022-12-18T00:13:40;-0.90;25.30
728;DHT22;347;48.780;9.158;2022-12-18T00:16:08;-1.10;26.00
728;DHT22;347;48.780;9.158;2022-12-18T00:18:34;-1.00;27.10
728;DHT22;347;48.780;9.158;2022-12-18T00:21:02;-0.60;26.40
728;DHT22;347;48.780;9.158;2022-12-18T00:23:28;-0.20;25.60
728;DHT22;347;48.780;9.158;2022-12-18T00:25:54;0.10;24.70
728;DHT22;347;48.780;9.158;2022-12-18T00:28:20;-0.20;24.20
728;DHT22;347;48.780;9.158;2022-12-18T00:30:46;-0.40;24.60
728;DHT22;347;48.780;9.158;2022-12-18T00:33:11;-0.70;25.30
728;DHT22;347;48.780;9.158;2022-12-18T00:35:37;-1.30;26.10
728;DHT22;347;48.780;9.158;2022-12-18T00:38:02;-1.20;27.40
728;DHT22;347;48.780;9.158;2022-12-18T00:40:28;-0.80;26.50
728;DHT22;347;48.780;9.158;2022-12-18T00:42:54;-0.40;25.50
728;DHT22;347;48.780;9.158;2022-12-18T00:45:25;-0.20;24.70
728;DHT22;347;48.780;9.158;2022-12-18T00:47:52;-0.50;24.70
728;DHT22;347;48.780;9.158;2022-12-18T00:50:18;-0.90;25.20
728;DHT22;347;48.780;9.158;2022-12-18T00:52:44;-1.00;26.10
728;DHT22;347;48.780;9.158;2022-12-18T00:55:10;-0.80;25.50
728;DHT22;347;48.780;9.158;2022-12-18T00:57:35;-0.90;25.10
728;DHT22;347;48.780;9.158;2022-12-18T01:00:03;-0.90;25.70
728;DHT22;347;48.780;9.158;2022-12-18T01:02:28;-0.90;25.10
728;DHT22;347;48.780;9.158;2022-12-18T01:04:54;-1.40;26.80
728;DHT22;347;48.780;9.158;2022-12-18T01:07:24;-1.80;27.80
728;DHT22;347;48.780;9.158;2022-12-18T01:09:56;-1.80;28.40
728;DHT22;347;48.780;9.158;2022-12-18T01:12:22;-1.90;28.10
728;DHT22;347;48.780;9.158;2022-12-18T01:14:52;-1.90;28.50
728;DHT22;347;48.780;9.158;2022-12-18T01:17:20;-1.80;28.50
728;DHT22;347;48.780;9.158;2022-12-18T01:19:48;-1.70;28.10
728;DHT22;347;48.780;9.158;2022-12-18T01:22:14;-1.70;28.00
728;DHT22;347;48.780;9.158;2022-12-18T01:24:50;-1.80;27.80
728;DHT22;347;48.780;9.158;2022-12-18T01:27:29;-2.10;28.80
728;DHT22;347;48.780;9.158;2022-12-18T01:30:02;-2.00;28.40
728;DHT22;347;48.780;9.158;2022-12-18T01:32:30;-2.10;28.30
728;DHT22;347;48.780;9.158;2022-12-18T01:34:58;-2.10;28.70
728;DHT22;347;48.780;9.158;2022-12-18T01:37:24;-2.30;29.20
728;DHT22;347;48.780;9.158;2022-12-18T01:39:50;-2.00;29.40
728;DHT22;347;48.780;9.158;2022-12-18T01:42:17;-1.80;28.50
728;DHT22;347;48.780;9.158;2022-12-18T01:45:00;-2.00;28.40
728;DHT22;347;48.780;9.158;2022-12-18T01:47:46;-2.00;28.60
728;DHT22;347;48.780;9.158;2022-12-18T01:53:05;-2.20;29.20
728;DHT22;347;48.780;9.158;2022-12-18T01:55:37;-2.10;29.60
728;DHT22;347;48.780;9.158;2022-12-18T01:58:05;-1.90;29.20
728;DHT22;347;48.780;9.158;2022-12-18T02:00:31;-1.80;28.40
728;DHT22;347;48.780;9.158;2022-12-18T02:02:57;-1.60;27.70
728;DHT22;347;48.780;9.158;2022-12-18T02:08:33;-1.50;27.70
728;DHT22;347;48.780;9.158;2022-12-18T02:11:05;-1.50;27.40
728;DHT22;347;48.780;9.158;2022-12-18T02:16:21;-1.70;28.00
728;DHT22;347;48.780;9.158;2022-12-18T02:19:06;-2.00;28.60
728;DHT22;347;48.780;9.158;2022-12-18T02:22:12;-1.80;28.40
728;DHT22;347;48.780;9.158;2022-12-18T02:24:59;-1.80;28.30
728;DHT22;347;48.780;9.158;2022-12-18T02:27:28;-2.20;28.90
728;DHT22;347;48.780;9.158;2022-12-18T02:29:56;-2.20;28.30
728;DHT22;347;48.780;9.158;2022-12-18T02:32:28;-2.10;28.80
728;DHT22;347;48.780;9.158;2022-12-18T02:34:56;-2.20;28.90
728;DHT22;347;48.780;9.158;2022-12-18T02:37:25;-2.00;28.20
728;DHT22;347;48.780;9.158;2022-12-18T02:39:53;-2.10;28.40
728;DHT22;347;48.780;9.158;2022-12-18T02:42:20;-2.00;28.00
728;DHT22;347;48.780;9.158;2022-12-18T02:44:48;-2.20;27.70
728;DHT22;347;48.780;9.158;2022-12-18T02:47:15;-2.50;28.40
728;DHT22;347;48.780;9.158;2022-12-18T02:58:14;-2.60;28.80
728;DHT22;347;48.780;9.158;2022-12-18T03:01:03;-2.20;28.50
728;DHT22;347;48.780;9.158;2022-12-18T03:03:46;-1.80;27.20
728;DHT22;347;48.780;9.158;2022-12-18T03:08:47;-1.60;26.50
728;DHT22;347;48.780;9.158;2022-12-18T03:11:14;-1.50;26.10
728;DHT22;347;48.780;9.158;2022-12-18T03:16:07;-1.30;25.40
728;DHT22;347;48.780;9.158;2022-12-18T03:18:39;-1.30;24.90
728;DHT22;347;48.780;9.158;2022-12-18T03:21:08;-1.80;25.80
728;DHT22;347;48.780;9.158;2022-12-18T03:23:40;-1.70;25.80
728;DHT22;347;48.780;9.158;2022-12-18T03:26:15;-1.50;25.50
728;DHT22;347;48.780;9.158;2022-12-18T03:28:46;-1.60;25.40
728;DHT22;347;48.780;9.158;2022-12-18T03:31:14;-1.40;25.50
728;DHT22;347;48.780;9.158;2022-12-18T03:33:50;-1.10;25.00
728;DHT22;347;48.780;9.158;2022-12-18T03:36:17;-0.90;24.10
728;DHT22;347;48.780;9.158;2022-12-18T03:38:42;-1.00;24.70
728;DHT22;347;48.780;9.158;2022-12-18T03:41:33;-1.00;24.00
728;DHT22;347;48.780;9.158;2022-12-18T03:44:25;-1.00;24.20
728;DHT22;347;48.780;9.158;2022-12-18T03:50:02;-1.00;23.30
728;DHT22;347;48.780;9.158;2022-12-18T03:52:36;-1.50;24.20
728;DHT22;347;48.780;9.158;2022-12-18T03:55:04;-2.10;24.80
728;DHT22;347;48.780;9.158;2022-12-18T03:57:31;-2.30;24.90
728;DHT22;347;48.780;9.158;2022-12-18T04:00:07;-2.50;25.70
728;DHT22;347;48.780;9.158;2022-12-18T04:02:34;-2.70;26.40
728;DHT22;347;48.780;9.158;2022-12-18T04:05:03;-2.80;26.10
728;DHT22;347;48.780;9.158;2022-12-18T04:07:30;-3.00;26.70
728;DHT22;347;48.780;9.158;2022-12-18T04:09:58;-3.10;27.30
728;DHT22;347;48.780;9.158;2022-12-18T04:12:25;-2.70;27.30
728;DHT22;347;48.780;9.158;2022-12-18T04:14:53;-2.50;26.00
728;DHT22;347;48.780;9.158;2022-12-18T04:17:19;-2.60;26.00
728;DHT22;347;48.780;9.158;2022-12-18T04:19:45;-2.80;25.90
728;DHT22;347;48.780;9.158;2022-12-18T04:22:10;-3.20;26.80
728;DHT22;347;48.780;9.158;2022-12-18T04:24:36;-3.40;27.00
728;DHT22;347;48.780;9.158;2022-12-18T04:27:02;-3.30;27.40
728;DHT22;347;48.780;9.158;2022-12-18T04:29:28;-3.30;27.30
728;DHT22;347;48.780;9.158;2022-12-18T04:31:54;-3.20;27.10
728;DHT22;347;48.780;9.158;2022-12-18T04:34:19;-3.20;28.30
728;DHT22;347;48.780;9.158;2022-12-18T04:36:45;-3.20;27.10
728;DHT22;347;48.780;9.158;2022-12-18T04:39:11;-3.40;27.50
728;DHT22;347;48.780;9.158;2022-12-18T04:41:37;-3.60;27.70
728;DHT22;347;48.780;9.158;2022-12-18T04:44:03;-3.50;27.40
728;DHT22;347;48.780;9.158;2022-12-18T04:46:29;-3.40;27.40
728;DHT22;347;48.780;9.158;2022-12-18T04:48:54;-3.50;27.40
728;DHT22;347;48.780;9.158;2022-12-18T04:51:20;-3.60;28.10
728;DHT22;347;48.780;9.158;2022-12-18T04:53:45;-3.60;28.40
728;DHT22;347;48.780;9.158;2022-12-18T04:56:13;-3.50;28.00
728;DHT22;347;48.780;9.158;2022-12-18T04:58:41;-3.30;27.60
728;DHT22;347;48.780;9.158;2022-12-18T05:01:07;-3.30;27.10
728;DHT22;347;48.780;9.158;2022-12-18T05:03:33;-3.50;26.80
728;DHT22;347;48.780;9.158;2022-12-18T05:05:59;-3.40;26.30
728;DHT22;347;48.780;9.158;2022-12-18T05:08:25;-3.60;26.50
728;DHT22;347;48.780;9.158;2022-12-18T05:11:07;-3.70;26.40
728;DHT22;347;48.780;9.158;2022-12-18T05:13:35;-3.60;26.80
728;DHT22;347;48.780;9.158;2022-12-18T05:16:01;-3.40;26.90
728;DHT22;347;48.780;9.158;2022-12-18T05:18:28;-3.30;26.10
728;DHT22;347;48.780;9.158;2022-12-18T05:20:54;-3.00;25.70
728;DHT22;347;48.780;9.158;2022-12-18T05:23:21;-2.80;25.30
728;DHT22;347;48.780;9.158;2022-12-18T05:25:54;-3.10;25.50
728;DHT22;347;48.780;9.158;2022-12-18T05:28:20;-3.00;25.50
728;DHT22;347;48.780;9.158;2022-12-18T05:30:50;-2.90;25.30
728;DHT22;347;48.780;9.158;2022-12-18T05:33:17;-2.60;25.10
728;DHT22;347;48.780;9.158;2022-12-18T05:35:43;-2.40;23.60
728;DHT22;347;48.780;9.158;2022-12-18T05:38:08;-3.10;25.50
728;DHT22;347;48.780;9.158;2022-12-18T05:40:34;-3.40;25.80
728;DHT22;347;48.780;9.158;2022-12-18T05:42:59;-3.80;26.90
728;DHT22;347;48.780;9.158;2022-12-18T05:45:25;-3.60;26.70
728;DHT22;347;48.780;9.158;2022-12-18T05:47:51;-3.80;26.50
728;DHT22;347;48.780;9.158;2022-12-18T05:50:16;-3.70;26.90
728;DHT22;347;48.780;9.158;2022-12-18T05:52:42;-3.70;26.40
728;DHT22;347;48.780;9.158;2022-12-18T05:55:07;-3.80;26.50
728;DHT22;347;48.780;9.158;2022-12-18T05:57:33;-3.90;27.10
728;DHT22;347;48.780;9.158;2022-12-18T05:59:59;-3.80;26.90
728;DHT22;347;48.780;9.158;2022-12-18T06:02:24;-3.60;26.80
728;DHT22;347;48.780;9.158;2022-12-18T06:04:50;-3.50;25.90
728;DHT22;347;48.780;9.158;2022-12-18T06:07:15;-3.30;25.40
728;DHT22;347;48.780;9.158;2022-12-18T06:09:41;-3.40;25.90
728;DHT22;347;48.780;9.158;2022-12-18T06:12:06;-3.70;26.60
728;DHT22;347;48.780;9.158;2022-12-18T06:14:32;-3.60;26.20
728;DHT22;347;48.780;9.158;2022-12-18T06:16:58;-3.60;26.20
728;DHT22;347;48.780;9.158;2022-12-18T06:19:23;-3.60;26.00
728;DHT22;347;48.780;9.158;2022-12-18T06:21:49;-3.60;26.30
728;DHT22;347;48.780;9.158;2022-12-18T06:24:15;-3.40;25.70
728;DHT22;347;48.780;9.158;2022-12-18T06:26:41;-3.50;26.00
728;DHT22;347;48.780;9.158;2022-12-18T06:29:07;-3.20;26.30
728;DHT22;347;48.780;9.158;2022-12-18T06:31:32;-3.20;25.80
728;DHT22;347;48.780;9.158;2022-12-18T06:33:58;-3.20;25.50
728;DHT22;347;48.780;9.158;2022-12-18T06:36:23;-3.50;25.60
728;DHT22;347;48.780;9.158;2022-12-18T06:38:49;-3.60;27.00
728;DHT22;347;48.780;9.158;2022-12-18T06:41:17;-3.50;26.20
728;DHT22;347;48.780;9.158;2022-12-18T06:43:44;-3.40;26.90
728;DHT22;347;48.780;9.158;2022-12-18T06:46:10;-3.30;26.40
728;DHT22;347;48.780;9.158;2022-12-18T06:48:37;-3.30;25.80
728;DHT22;347;48.780;9.158;2022-12-18T06:51:02;-3.20;26.00
728;DHT22;347;48.780;9.158;2022-12-18T06:53:28;-3.30;26.20
728;DHT22;347;48.780;9.158;2022-12-18T06:56:06;-3.50;26.90
728;DHT22;347;48.780;9.158;2022-12-18T06:58:32;-3.60;27.00
728;DHT22;347;48.780;9.158;2022-12-18T07:01:02;-3.80;26.80
728;DHT22;347;48.780;9.158;2022-12-18T07:03:28;-3.70;27.50
728;DHT22;347;48.780;9.158;2022-12-18T07:05:54;-3.40;26.40
728;DHT22;347;48.780;9.158;2022-12-18T07:08:19;-3.20;26.70
728;DHT22;347;48.780;9.158;2022-12-18T07:10:45;-3.40;26.70
728;DHT22;347;48.780;9.158;2022-12-18T07:13:10;-3.60;27.30
728;DHT22;347;48.780;9.158;2022-12-18T07:15:37;-3.70;27.20
728;DHT22;347;48.780;9.158;2022-12-18T07:18:03;-3.90;27.80
728;DHT22;347;48.780;9.158;2022-12-18T07:20:29;-4.00;28.00
728;DHT22;347;48.780;9.158;2022-12-18T07:22:54;-3.90;28.00
728;DHT22;347;48.780;9.158;2022-12-18T07:25:20;-3.80;27.80
728;DHT22;347;48.780;9.158;2022-12-18T07:27:45;-3.70;27.50
728;DHT22;347;48.780;9.158;2022-12-18T07:30:11;-3.30;27.50
728;DHT22;347;48.780;9.158;2022-12-18T07:32:37;-3.20;26.20
728;DHT22;347;48.780;9.158;2022-12-18T07:35:03;-2.90;26.20
728;DHT22;347;48.780;9.158;2022-12-18T07:37:29;-2.50;25.60
728;DHT22;347;48.780;9.158;2022-12-18T07:39:54;-2.30;24.90
728;DHT22;347;48.780;9.158;2022-12-18T07:42:20;-2.00;24.50
728;DHT22;347;48.780;9.158;2022-12-18T07:45:01;-1.80;23.90
728;DHT22;347;48.780;9.158;2022-12-18T07:47:28;-1.80;23.60
728;DHT22;347;48.780;9.158;2022-12-18T07:49:53;-1.80;23.70
728;DHT22;347;48.780;9.158;2022-12-18T07:52:19;-1.70;23.30
728;DHT22;347;48.780;9.158;2022-12-18T07:54:45;-1.70;23.60
728;DHT22;347;48.780;9.158;2022-12-18T07:57:11;-1.60;23.30
728;DHT22;347;48.780;9.158;2022-12-18T07:59:36;-1.60;23.20
728;DHT22;347;48.780;9.158;2022-12-18T08:02:02;-1.70;23.40
728;DHT22;347;48.780;9.158;2022-12-18T08:04:28;-1.60;23.20
728;DHT22;347;48.780;9.158;2022-12-18T08:06:54;-1.70;22.80
728;DHT22;347;48.780;9.158;2022-12-18T08:09:19;-1.90;23.60
728;DHT22;347;48.780;9.158;2022-12-18T08:11:45;-1.90;24.30
728;DHT22;347;48.780;9.158;2022-12-18T08:14:11;-2.00;24.00
728;DHT22;347;48.780;9.158;2022-12-18T08:16:36;-1.90;23.70
728;DHT22;347;48.780;9.158;2022-12-18T08:19:02;-1.90;24.50
728;DHT22;347;48.780;9.158;2022-12-18T08:21:30;-1.70;23.40
728;DHT22;347;48.780;9.158;2022-12-18T08:23:59;-1.90;23.90
728;DHT22;347;48.780;9.158;2022-12-18T08:26:27;-2.00;24.40
728;DHT22;347;48.780;9.158;2022-12-18T08:28:55;-1.90;24.50
728;DHT22;347;48.780;9.158;2022-12-18T08:31:22;-1.90;24.50
728;DHT22;347;48.780;9.158;2022-12-18T08:33:52;-1.80;24.60
728;DHT22;347;48.780;9.158;2022-12-18T08:36:18;-1.50;24.10
728;DHT22;347;48.780;9.158;2022-12-18T08:38:45;-1.40;23.20
728;DHT22;347;48.780;9.158;2022-12-18T08:41:12;-1.20;23.20
728;DHT22;347;48.780;9.158;2022-12-18T08:43:38;-1.20;22.20
728;DHT22;347;48.780;9.158;2022-12-18T08:46:25;-1.40;22.90
728;DHT22;347;48.780;9.158;2022-12-18T08:48:52;-1.60;23.10
728;DHT22;347;48.780;9.158;2022-12-18T08:51:18;-1.70;23.40
728;DHT22;347;48.780;9.158;2022-12-18T08:53:45;-1.70;23.70
728;DHT22;347;48.780;9.158;2022-12-18T08:56:11;-1.60;24.20
728;DHT22;347;48.780;9.158;2022-12-18T08:58:37;-1.50;24.10
728;DHT22;347;48.780;9.158;2022-12-18T09:01:05;-1.40;23.90
728;DHT22;347;48.780;9.158;2022-12-18T09:03:31;-1.30;23.50
728;DHT22;347;48.780;9.158;2022-12-18T09:05:58;-1.30;23.70
728;DHT22;347;48.780;9.158;2022-12-18T09:08:23;-1.10;23.80
728;DHT22;347;48.780;9.158;2022-12-18T09:10:50;-1.10;22.70
728;DHT22;347;48.780;9.158;2022-12-18T09:13:16;-1.00;23.10
728;DHT22;347;48.780;9.158;2022-12-18T09:15:48;-1.10;23.10
728;DHT22;347;48.780;9.158;2022-12-18T09:18:16;-1.00;24.60
728;DHT22;347;48.780;9.158;2022-12-18T09:20:42;-0.80;23.50
728;DHT22;347;48.780;9.158;2022-12-18T09:23:08;-1.00;23.70
728;DHT22;347;48.780;9.158;2022-12-18T09:25:35;-0.90;23.40
728;DHT22;347;48.780;9.158;2022-12-18T09:28:09;-1.00;23.30
728;DHT22;347;48.780;9.158;2022-12-18T09:30:37;-1.10;23.30
728;DHT22;347;48.780;9.158;2022-12-18T09:33:03;-1.30;23.70
728;DHT22;347;48.780;9.158;2022-12-18T09:35:29;-1.50;24.00
728;DHT22;347;48.780;9.158;2022-12-18T09:37:54;-1.50;24.60
728;DHT22;347;48.780;9.158;2022-12-18T09:40:23;-1.60;24.70
728;DHT22;347;48.780;9.158;2022-12-18T09:42:56;-1.50;25.10
728;DHT22;347;48.780;9.158;2022-12-18T09:45:23;-1.40;25.00
728;DHT22;347;48.780;9.158;2022-12-18T09:47:50;-1.50;24.90
728;DHT22;347;48.780;9.158;2022-12-18T09:50:29;-1.60;25.50
728;DHT22;347;48.780;9.158;2022-12-18T09:52:59;-1.30;25.30
728;DHT22;347;48.780;9.158;2022-12-18T09:55:34;-1.10;25.00
728;DHT22;347;48.780;9.158;2022-12-18T10:00:37;-0.60;25.30
728;DHT22;347;48.780;9.158;2022-12-18T10:03:11;-0.50;24.30
728;DHT22;347;48.780;9.158;2022-12-18T10:10:46;-0.40;25.00
728;DHT22;347;48.780;9.158;2022-12-18T10:13:41;-0.30;25.50
728;DHT22;347;48.780;9.158;2022-12-18T10:21:37;-0.60;26.60
728;DHT22;347;48.780;9.158;2022-12-18T10:26:45;-0.70;27.50
728;DHT22;347;48.780;9.158;2022-12-18T10:29:13;-0.80;27.50
728;DHT22;347;48.780;9.158;2022-12-18T10:31:39;-1.00;28.30
728;DHT22;347;48.780;9.158;2022-12-18T10:34:12;-1.10;28.40
728;DHT22;347;48.780;9.158;2022-12-18T10:36:38;-0.90;28.60
728;DHT22;347;48.780;9.158;2022-12-18T10:39:24;-0.70;28.60
728;DHT22;347;48.780;9.158;2022-12-18T10:41:52;-0.50;28.10
728;DHT22;347;48.780;9.158;2022-12-18T10:44:30;-0.30;27.80
728;DHT22;347;48.780;9.158;2022-12-18T10:47:03;-0.10;27.10
728;DHT22;347;48.780;9.158;2022-12-18T10:49:31;0.00;26.60
728;DHT22;347;48.780;9.158;2022-12-18T10:52:22;-0.10;26.70
728;DHT22;347;48.780;9.158;2022-12-18T10:54:52;-0.10;27.00
728;DHT22;347;48.780;9.158;2022-12-18T10:57:33;0.10;26.50
728;DHT22;347;48.780;9.158;2022-12-18T11:02:46;0.30;26.20
728;DHT22;347;48.780;9.158;2022-12-18T11:05:32;0.50;26.00
728;DHT22;347;48.780;9.158;2022-12-18T11:07:59;0.70;26.10
728;DHT22;347;48.780;9.158;2022-12-18T11:10:36;0.80;26.00
728;DHT22;347;48.780;9.158;2022-12-18T11:13:23;0.70;26.10
728;DHT22;347;48.780;9.158;2022-12-18T11:15:50;0.60;26.10
728;DHT22;347;48.780;9.158;2022-12-18T11:20:55;0.70;26.80
728;DHT22;347;48.780;9.158;2022-12-18T11:23:22;1.00;26.30
728;DHT22;347;48.780;9.158;2022-12-18T11:25:56;1.10;26.00
728;DHT22;347;48.780;9.158;2022-12-18T11:28:38;0.90;25.80
728;DHT22;347;48.780;9.158;2022-12-18T11:31:19;0.80;26.20
728;DHT22;347;48.780;9.158;2022-12-18T11:34:20;0.50;26.80
728;DHT22;347;48.780;9.158;2022-12-18T11:36:48;0.10;28.10
728;DHT22;347;48.780;9.158;2022-12-18T11:39:40;0.10;28.40
728;DHT22;347;48.780;9.158;2022-12-18T11:42:23;0.30;28.20
728;DHT22;347;48.780;9.158;2022-12-18T11:47:49;0.60;27.60
728;DHT22;347;48.780;9.158;2022-12-18T11:50:56;0.70;27.60
728;DHT22;347;48.780;9.158;2022-12-18T11:53:16;0.80;27.30
728;DHT22;347;48.780;9.158;2022-12-18T11:56:02;0.90;27.00
728;DHT22;347;48.780;9.158;2022-12-18T12:01:36;1.10;26.40
728;DHT22;347;48.780;9.158;2022-12-18T12:20:16;1.80;24.90
728;DHT22;347;48.780;9.158;2022-12-18T12:25:49;2.00;25.10
728;DHT22;347;48.780;9.158;2022-12-18T12:39:31;1.30;26.40
728;DHT22;347;48.780;9.158;2022-12-18T12:41:58;1.10;26.40
728;DHT22;347;48.780;9.158;2022-12-18T12:44:47;1.00;26.30
728;DHT22;347;48.780;9.158;2022-12-18T12:47:21;0.90;26.20
728;DHT22;347;48.780;9.158;2022-12-18T12:49:51;1.00;26.40
728;DHT22;347;48.780;9.158;2022-12-18T12:52:36;1.10;26.50
728;DHT22;347;48.780;9.158;2022-12-18T12:55:07;1.20;26.00
728;DHT22;347;48.780;9.158;2022-12-18T12:57:40;1.00;26.30
728;DHT22;347;48.780;9.158;2022-12-18T13:03:06;1.20;26.50
728;DHT22;347;48.780;9.158;2022-12-18T13:05:59;1.20;26.50
728;DHT22;347;48.780;9.158;2022-12-18T13:08:54;1.20;26.40
728;DHT22;347;48.780;9.158;2022-12-18T13:11:46;1.50;26.60
728;DHT22;347;48.780;9.158;2022-12-18T13:14:36;1.80;25.90
728;DHT22;347;48.780;9.158;2022-12-18T13:19:51;1.60;25.90
728;DHT22;347;48.780;9.158;2022-12-18T13:23:05;1.50;25.30
728;DHT22;347;48.780;9.158;2022-12-18T13:25:35;1.30;25.90
728;DHT22;347;48.780;9.158;2022-12-18T13:28:05;1.10;26.40
728;DHT22;347;48.780;9.158;2022-12-18T13:48:26;0.70;27.90
728;DHT22;347;48.780;9.158;2022-12-18T13:51:06;0.70;27.80
728;DHT22;347;48.780;9.158;2022-12-18T13:53:54;0.80;28.20
728;DHT22;347;48.780;9.158;2022-12-18T13:56:27;1.10;27.30
728;DHT22;347;48.780;9.158;2022-12-18T14:01:32;1.20;27.20
728;DHT22;347;48.780;9.158;2022-12-18T14:06:51;1.10;27.00
728;DHT22;347;48.780;9.158;2022-12-18T14:09:25;1.10;27.60
728;DHT22;347;48.780;9.158;2022-12-18T14:11:52;1.20;27.50
728;DHT22;347;48.780;9.158;2022-12-18T14:14:44;1.40;27.10
728;DHT22;347;48.780;9.158;2022-12-18T14:17:11;1.40;27.00
728;DHT22;347;48.780;9.158;2022-12-18T14:19:47;1.50;27.20
728;DHT22;347;48.780;9.158;2022-12-18T14:22:21;1.30;27.10
728;DHT22;347;48.780;9.158;2022-12-18T14:27:37;1.40;27.50
728;DHT22;347;48.780;9.158;2022-12-18T14:35:27;1.60;27.70
728;DHT22;347;48.780;9.158;2022-12-18T14:37:53;1.70;26.70
728;DHT22;347;48.780;9.158;2022-12-18T14:40:19;1.80;27.40
728;DHT22;347;48.780;9.158;2022-12-18T14:42:45;1.80;26.80
728;DHT22;347;48.780;9.158;2022-12-18T14:45:33;1.70;26.80
728;DHT22;347;48.780;9.158;2022-12-18T14:48:00;1.80;27.30
728;DHT22;347;48.780;9.158;2022-12-18T14:50:26;1.70;26.80
728;DHT22;347;48.780;9.158;2022-12-18T14:52:52;1.70;27.00
728;DHT22;347;48.780;9.158;2022-12-18T14:55:18;1.60;27.80
728;DHT22;347;48.780;9.158;2022-12-18T14:57:44;1.70;27.50
728;DHT22;347;48.780;9.158;2022-12-18T15:00:22;1.70;27.50
728;DHT22;347;48.780;9.158;2022-12-18T15:02:57;1.70;27.40
728;DHT22;347;48.780;9.158;2022-12-18T15:05:31;1.90;26.90
728;DHT22;347;48.780;9.158;2022-12-18T15:07:59;1.80;26.80
728;DHT22;347;48.780;9.158;2022-12-18T15:10:29;1.70;26.70
728;DHT22;347;48.780;9.158;2022-12-18T15:21:06;1.50;27.30
728;DHT22;347;48.780;9.158;2022-12-18T15:23:38;1.60;27.50
728;DHT22;347;48.780;9.158;2022-12-18T15:26:12;1.30;27.60
728;DHT22;347;48.780;9.158;2022-12-18T15:28:39;1.40;28.20
728;DHT22;347;48.780;9.158;2022-12-18T15:33:42;1.80;27.60
728;DHT22;347;48.780;9.158;2022-12-18T15:36:14;1.80;26.80
728;DHT22;347;48.780;9.158;2022-12-18T15:38:40;1.50;26.90
728;DHT22;347;48.780;9.158;2022-12-18T15:41:11;1.50;27.70
728;DHT22;347;48.780;9.158;2022-12-18T15:43:38;1.40;27.60
728;DHT22;347;48.780;9.158;2022-12-18T15:46:06;1.20;28.80
728;DHT22;347;48.780;9.158;2022-12-18T15:48:39;1.40;28.20
728;DHT22;347;48.780;9.158;2022-12-18T15:51:19;1.60;27.60
728;DHT22;347;48.780;9.158;2022-12-18T15:53:50;1.70;27.30
728;DHT22;347;48.780;9.158;2022-12-18T15:56:16;1.50;27.80
728;DHT22;347;48.780;9.158;2022-12-18T15:59:01;1.30;28.20
728;DHT22;347;48.780;9.158;2022-12-18T16:07:21;0.70;29.60
728;DHT22;347;48.780;9.158;2022-12-18T16:09:47;0.60;29.80
728;DHT22;347;48.780;9.158;2022-12-18T16:12:22;0.50;30.10
728;DHT22;347;48.780;9.158;2022-12-18T16:14:49;0.70;29.60
728;DHT22;347;48.780;9.158;2022-12-18T16:17:15;0.80;29.40
728;DHT22;347;48.780;9.158;2022-12-18T16:19:41;1.00;28.70
728;DHT22;347;48.780;9.158;2022-12-18T16:22:22;1.00;28.90
728;DHT22;347;48.780;9.158;2022-12-18T16:24:49;0.80;29.30
728;DHT22;347;48.780;9.158;2022-12-18T16:27:15;1.00;29.10
728;DHT22;347;48.780;9.158;2022-12-18T16:29:41;0.80;28.60
728;DHT22;347;48.780;9.158;2022-12-18T16:32:13;1.00;29.10
728;DHT22;347;48.780;9.158;2022-12-18T16:34:38;1.20;28.10
728;DHT22;347;48.780;9.158;2022-12-18T16:37:06;1.20;27.70
728;DHT22;347;48.780;9.158;2022-12-18T16:39:33;1.30;28.30
728;DHT22;347;48.780;9.158;2022-12-18T16:42:20;1.30;27.40
728;DHT22;347;48.780;9.158;2022-12-18T16:44:47;1.30;28.30
728;DHT22;347;48.780;9.158;2022-12-18T16:47:15;1.30;27.60
728;DHT22;347;48.780;9.158;2022-12-18T16:49:41;1.20;28.50
728;DHT22;347;48.780;9.158;2022-12-18T16:52:07;1.10;28.20
728;DHT22;347;48.780;9.158;2022-12-18T16:54:33;1.10;27.70
728;DHT22;347;48.780;9.158;2022-12-18T16:57:01;1.10;28.40
728;DHT22;347;48.780;9.158;2022-12-18T16:59:27;1.00;28.20
728;DHT22;347;48.780;9.158;2022-12-18T17:01:53;0.90;28.40
728;DHT22;347;48.780;9.158;2022-12-18T17:04:20;0.90;27.90
728;DHT22;347;48.780;9.158;2022-12-18T17:06:46;1.20;28.20
728;DHT22;347;48.780;9.158;2022-12-18T17:09:17;1.20;27.60
728;DHT22;347;48.780;9.158;2022-12-18T17:11:49;1.20;28.10
728;DHT22;347;48.780;9.158;2022-12-18T17:14:18;1.40;27.20
728;DHT22;347;48.780;9.158;2022-12-18T17:16:44;1.30;27.50
728;DHT22;347;48.780;9.158;2022-12-18T17:19:11;1.30;28.30
728;DHT22;347;48.780;9.158;2022-12-18T17:21:37;1.40;27.10
728;DHT22;347;48.780;9.158;2022-12-18T17:24:03;1.60;26.70
728;DHT22;347;48.780;9.158;2022-12-18T17:26:29;1.50;26.60
728;DHT22;347;48.780;9.158;2022-12-18T17:28:56;1.50;27.50
728;DHT22;347;48.780;9.158;2022-12-18T17:31:24;1.70;26.70
728;DHT22;347;48.780;9.158;2022-12-18T17:33:50;1.80;26.50
728;DHT22;347;48.780;9.158;2022-12-18T17:36:17;1.70;26.30
728;DHT22;347;48.780;9.158;2022-12-18T17:38:48;1.60;26.70
728;DHT22;347;48.780;9.158;2022-12-18T17:41:14;1.70;26.30
728;DHT22;347;48.780;9.158;2022-12-18T17:43:40;1.60;26.70
728;DHT22;347;48.780;9.158;2022-12-18T17:46:13;1.60;26.10
728;DHT22;347;48.780;9.158;2022-12-18T17:48:40;1.70;26.40
728;DHT22;347;48.780;9.158;2022-12-18T17:51:09;1.70;25.60
728;DHT22;347;48.780;9.158;2022-12-18T17:53:35;1.70;26.50
728;DHT22;347;48.780;9.158;2022-12-18T17:56:01;1.80;25.90
728;DHT22;347;48.780;9.158;2022-12-18T17:58:30;2.00;26.20
728;DHT22;347;48.780;9.158;2022-12-18T18:00:56;2.10;26.00
728;DHT22;347;48.780;9.158;2022-12-18T18:03:22;2.20;24.80
728;DHT22;347;48.780;9.158;2022-12-18T18:05:47;1.80;25.30
728;DHT22;347;48.780;9.158;2022-12-18T18:08:13;1.90;25.60
728;DHT22;347;48.780;9.158;2022-12-18T18:10:39;2.00;26.00
728;DHT22;347;48.780;9.158;2022-12-18T18:13:14;1.90;25.50
728;DHT22;347;48.780;9.158;2022-12-18T18:16:00;2.00;25.60
728;DHT22;347;48.780;9.158;2022-12-18T18:18:28;2.00;25.80
728;DHT22;347;48.780;9.158;2022-12-18T18:20:53;2.00;25.70
728;DHT22;347;48.780;9.158;2022-12-18T18:23:19;2.10;25.70
728;DHT22;347;48.780;9.158;2022-12-18T18:25:45;2.10;25.40
728;DHT22;347;48.780;9.158;2022-12-18T18:28:11;2.00;25.60
728;DHT22;347;48.780;9.158;2022-12-18T18:30:37;1.90;26.10
728;DHT22;347;48.780;9.158;2022-12-18T18:33:03;1.50;26.60
728;DHT22;347;48.780;9.158;2022-12-18T18:35:28;1.40;26.50
728;DHT22;347;48.780;9.158;2022-12-18T18:37:54;1.60;26.70
728;DHT22;347;48.780;9.158;2022-12-18T18:40:20;1.50;26.60
728;DHT22;347;48.780;9.158;2022-12-18T18:42:46;1.50;26.60
728;DHT22;347;48.780;9.158;2022-12-18T18:45:12;1.70;26.70
728;DHT22;347;48.780;9.158;2022-12-18T18:47:38;1.80;26.80
728;DHT22;347;48.780;9.158;2022-12-18T18:50:04;1.90;26.90
728;DHT22;347;48.780;9.158;2022-12-18T18:52:30;1.90;26.50
728;DHT22;347;48.780;9.158;2022-12-18T18:54:56;1.70;26.70
728;DHT22;347;48.780;9.158;2022-12-18T18:57:22;1.50;26.70
728;DHT22;347;48.780;9.158;2022-12-18T18:59:47;1.40;27.40
728;DHT22;347;48.780;9.158;2022-12-18T19:02:15;0.80;28.20
728;DHT22;347;48.780;9.158;2022-12-18T19:04:41;0.50;29.30
728;DHT22;347;48.780;9.158;2022-12-18T19:07:07;0.30;30.00
728;DHT22;347;48.780;9.158;2022-12-18T19:09:33;0.10;30.70
728;DHT22;347;48.780;9.158;2022-12-18T19:12:01;0.00;31.30
728;DHT22;347;48.780;9.158;2022-12-18T19:14:45;-0.20;32.10
728;DHT22;347;48.780;9.158;2022-12-18T19:17:11;0.00;32.20